sensor_id;sensor_type;location;lat;lon;timestamp;P1;durP1;ratioP1;P2;durP2;ratioP2
5630;SDS011;2837;50.990;7.124;2022-09-03T05:01:11;148.70;;;8.00;;
5630;SDS011;2837;50.990;7.124;2022-09-03T05:03:40;148.67;;;8.70;;
5630;SDS011;2837;50.990;7.124;2022-09-03T05:06:06;148.17;;;8.57;;
5630;SDS011;2837;50.990;7.124;2022-09-03T05:08:32;148.43;;;8.47;;
5630;SDS011;2837;50.990;7.124;2022-09-03T05:11:04;148.70;;;9.37;;
5630;SDS011;2837;50.990;7.124;2022-09-03T05:13:31;148.50;;;8.30;;
5630;SDS011;2837;50.990;7.124;2022-09-03T05:16:02;149.67;;;9.30;;
5630;SDS011;2837;50.990;7.124;2022-09-03T05:18:30;149.03;;;8.60;;
5630;SDS011;2837;50.990;7.124;2022-09-03T05:21:15;152.47;;;8.77;;
5630;SDS011;2837;50.990;7.124;2022-09-03T05:23:43;149.77;;;9.07;;
5630;SDS011;2837;50.990;7.124;2022-09-03T05:26:11;149.07;;;8.70;;
5630;SDS011;2837;50.990;7.124;2022-09-03T05:28:39;147.87;;;8.53;;
5630;SDS011;2837;50.990;7.124;2022-09-03T05:31:07;148.80;;;9.47;;
5630;SDS011;2837;50.990;7.124;2022-09-03T05:33:44;150.60;;;8.80;;
5630;SDS011;2837;50.990;7.124;2022-09-03T05:36:21;149.10;;;8.77;;
5630;SDS011;2837;50.990;7.124;2022-09-03T05:38:47;148.63;;;8.70;;
5630;SDS011;2837;50.990;7.124;2022-09-03T05:41:14;150.00;;;9.50;;
5630;SDS011;2837;50.990;7.124;2022-09-03T05:43:41;148.63;;;8.90;;
5630;SDS011;2837;50.990;7.124;2022-09-03T05:46:11;148.50;;;8.77;;
5630;SDS011;2837;50.990;7.124;2022-09-03T05:48:40;147.93;;;8.37;;
5630;SDS011;2837;50.990;7.124;2022-09-03T05:51:13;148.30;;;9.07;;
5630;SDS011;2837;50.990;7.124;2022-09-03T05:53:41;148.10;;;8.30;;
5630;SDS011;2837;50.990;7.124;2022-09-03T05:56:09;155.87;;;9.60;;
5630;SDS011;2837;50.990;7.124;2022-09-03T05:58:42;150.67;;;8.37;;
5630;SDS011;2837;50.990;7.124;2022-09-03T06:01:13;148.63;;;8.63;;
5630;SDS011;2837;50.990;7.124;2022-09-03T06:03:41;148.80;;;8.70;;
5630;SDS011;2837;50.990;7.124;2022-09-03T06:06:07;148.13;;;8.90;;
5630;SDS011;2837;50.990;7.124;2022-09-03T06:08:33;147.73;;;8.60;;
5630;SDS011;2837;50.990;7.124;2022-09-03T06:11:02;148.93;;;8.93;;
5630;SDS011;2837;50.990;7.124;2022-09-03T06:13:28;148.30;;;9.67;;
5630;SDS011;2837;50.990;7.124;2022-09-03T06:15:58;148.30;;;8.70;;
5630;SDS011;2837;50.990;7.124;2022-09-03T06:18:27;148.50;;;8.43;;
5630;SDS011;2837;50.990;7.124;2022-09-03T06:20:53;148.20;;;8.67;;
5630;SDS011;2837;50.990;7.124;2022-09-03T06:23:22;147.37;;;8.47;;
5630;SDS011;2837;50.990;7.124;2022-09-03T06:28:44;148.57;;;8.97;;
5630;SDS011;2837;50.990;7.124;2022-09-03T06:31:13;148.60;;;8.50;;
5630;SDS011;2837;50.990;7.124;2022-09-03T06:33:40;147.77;;;8.30;;
5630;SDS011;2837;50.990;7.124;2022-09-03T06:36:07;148.10;;;8.00;;
5630;SDS011;2837;50.990;7.124;2022-09-03T06:38:37;148.90;;;9.23;;
5630;SDS011;2837;50.990;7.124;2022-09-03T06:41:04;147.13;;;8.07;;
5630;SDS011;2837;50.990;7.124;2022-09-03T06:43:33;147.27;;;8.63;;
5630;SDS011;2837;50.990;7.124;2022-09-03T06:46:00;148.73;;;8.70;;
5630;SDS011;2837;50.990;7.124;2022-09-03T06:48:31;150.00;;;8.43;;
5630;SDS011;2837;50.990;7.124;2022-09-03T06:50:59;148.43;;;9.23;;
5630;SDS011;2837;50.990;7.124;2022-09-03T06:53:27;147.30;;;8.40;;
5630;SDS011;2837;50.990;7.124;2022-09-03T06:55:58;150.10;;;8.67;;
5630;SDS011;2837;50.990;7.124;2022-09-03T06:58:29;147.67;;;8.83;;
5630;SDS011;2837;50.990;7.124;2022-09-03T07:01:03;146.77;;;8.77;;
5630;SDS011;2837;50.990;7.124;2022-09-03T07:03:31;147.10;;;8.10;;
5630;SDS011;2837;50.990;7.124;2022-09-03T07:06:01;147.80;;;8.83;;
5630;SDS011;2837;50.990;7.124;2022-09-03T07:08:29;148.10;;;8.77;;
5630;SDS011;2837;50.990;7.124;2022-09-03T07:10:56;147.47;;;8.53;;
5630;SDS011;2837;50.990;7.124;2022-09-03T07:13:29;148.20;;;9.17;;
5630;SDS011;2837;50.990;7.124;2022-09-03T07:15:58;147.50;;;8.87;;
5630;SDS011;2837;50.990;7.124;2022-09-03T07:18:29;147.67;;;8.77;;
5630;SDS011;2837;50.990;7.124;2022-09-03T07:20:59;147.70;;;8.90;;
5630;SDS011;2837;50.990;7.124;2022-09-03T07:23:25;148.47;;;9.70;;
5630;SDS011;2837;50.990;7.124;2022-09-03T07:25:53;148.27;;;9.17;;
5630;SDS011;2837;50.990;7.124;2022-09-03T07:28:20;147.07;;;8.57;;
5630;SDS011;2837;50.990;7.124;2022-09-03T07:30:47;148.30;;;9.03;;
5630;SDS011;2837;50.990;7.124;2022-09-03T07:33:12;147.97;;;8.93;;
5630;SDS011;2837;50.990;7.124;2022-09-03T07:35:38;155.30;;;9.30;;
5630;SDS011;2837;50.990;7.124;2022-09-03T07:38:03;147.63;;;8.67;;
5630;SDS011;2837;50.990;7.124;2022-09-03T07:40:29;147.57;;;8.97;;
5630;SDS011;2837;50.990;7.124;2022-09-03T07:42:56;154.27;;;8.33;;
5630;SDS011;2837;50.990;7.124;2022-09-03T07:45:25;147.10;;;8.30;;
5630;SDS011;2837;50.990;7.124;2022-09-03T07:47:53;147.37;;;8.57;;
5630;SDS011;2837;50.990;7.124;2022-09-03T07:50:18;149.87;;;8.70;;
5630;SDS011;2837;50.990;7.124;2022-09-03T07:52:44;147.77;;;9.50;;
5630;SDS011;2837;50.990;7.124;2022-09-03T07:55:11;146.93;;;8.50;;
5630;SDS011;2837;50.990;7.124;2022-09-03T07:57:37;147.00;;;8.17;;
5630;SDS011;2837;50.990;7.124;2022-09-03T08:00:03;147.87;;;8.73;;
5630;SDS011;2837;50.990;7.124;2022-09-03T08:02:32;147.87;;;9.17;;
5630;SDS011;2837;50.990;7.124;2022-09-03T08:04:58;147.00;;;8.47;;
5630;SDS011;2837;50.990;7.124;2022-09-03T08:07:24;147.37;;;9.00;;
5630;SDS011;2837;50.990;7.124;2022-09-03T08:09:52;146.77;;;8.40;;
5630;SDS011;2837;50.990;7.124;2022-09-03T08:12:17;146.57;;;7.87;;
5630;SDS011;2837;50.990;7.124;2022-09-03T08:14:43;147.50;;;8.87;;
5630;SDS011;2837;50.990;7.124;2022-09-03T08:17:09;147.80;;;8.27;;
5630;SDS011;2837;50.990;7.124;2022-09-03T08:19:36;146.47;;;8.50;;
5630;SDS011;2837;50.990;7.124;2022-09-03T08:22:02;146.97;;;8.20;;
5630;SDS011;2837;50.990;7.124;2022-09-03T08:24:27;148.27;;;8.87;;
5630;SDS011;2837;50.990;7.124;2022-09-03T08:26:53;146.87;;;7.97;;
5630;SDS011;2837;50.990;7.124;2022-09-03T08:29:19;146.93;;;8.60;;
5630;SDS011;2837;50.990;7.124;2022-09-03T08:31:45;146.17;;;7.60;;
5630;SDS011;2837;50.990;7.124;2022-09-03T08:34:10;146.17;;;8.53;;
5630;SDS011;2837;50.990;7.124;2022-09-03T08:36:38;145.90;;;7.87;;
5630;SDS011;2837;50.990;7.124;2022-09-03T08:39:07;146.47;;;8.97;;
5630;SDS011;2837;50.990;7.124;2022-09-03T08:44:13;146.20;;;8.40;;
5630;SDS011;2837;50.990;7.124;2022-09-03T08:52:42;145.90;;;8.23;;
5630;SDS011;2837;50.990;7.124;2022-09-03T08:55:36;146.17;;;8.37;;
5630;SDS011;2837;50.990;7.124;2022-09-03T09:09:24;146.70;;;8.40;;
5630;SDS011;2837;50.990;7.124;2022-09-03T09:12:40;146.77;;;8.67;;
5630;SDS011;2837;50.990;7.124;2022-09-03T09:15:25;152.97;;;7.87;;
5630;SDS011;2837;50.990;7.124;2022-09-03T09:18:18;145.50;;;7.57;;
5630;SDS011;2837;50.990;7.124;2022-09-03T09:20:59;145.77;;;8.03;;
5630;SDS011;2837;50.990;7.124;2022-09-03T09:23:48;145.40;;;7.73;;
5630;SDS011;2837;50.990;7.124;2022-09-03T09:26:16;144.90;;;7.33;;
5630;SDS011;2837;50.990;7.124;2022-09-03T09:28:44;151.87;;;8.00;;
5630;SDS011;2837;50.990;7.124;2022-09-03T09:31:12;144.30;;;7.57;;
5630;SDS011;2837;50.990;7.124;2022-09-03T09:33:40;145.37;;;7.90;;
5630;SDS011;2837;50.990;7.124;2022-09-03T09:36:10;144.80;;;7.70;;
5630;SDS011;2837;50.990;7.124;2022-09-03T09:38:40;145.80;;;8.20;;
5630;SDS011;2837;50.990;7.124;2022-09-03T09:41:11;144.80;;;8.00;;
5630;SDS011;2837;50.990;7.124;2022-09-03T09:43:39;144.77;;;8.23;;
5630;SDS011;2837;50.990;7.124;2022-09-03T09:46:08;149.00;;;8.73;;
5630;SDS011;2837;50.990;7.124;2022-09-03T09:48:38;145.07;;;7.53;;
5630;SDS011;2837;50.990;7.124;2022-09-03T09:51:13;146.87;;;8.43;;
5630;SDS011;2837;50.990;7.124;2022-09-03T09:53:42;145.00;;;8.23;;
5630;SDS011;2837;50.990;7.124;2022-09-03T09:56:09;145.50;;;7.80;;
5630;SDS011;2837;50.990;7.124;2022-09-03T09:58:48;144.37;;;7.37;;
5630;SDS011;2837;50.990;7.124;2022-09-03T10:01:17;143.80;;;7.50;;
5630;SDS011;2837;50.990;7.124;2022-09-03T10:03:56;145.07;;;8.43;;
5630;SDS011;2837;50.990;7.124;2022-09-03T10:06:33;144.67;;;7.90;;
5630;SDS011;2837;50.990;7.124;2022-09-03T10:09:18;144.90;;;7.20;;
5630;SDS011;2837;50.990;7.124;2022-09-03T10:11:55;144.23;;;8.00;;
5630;SDS011;2837;50.990;7.124;2022-09-03T10:17:26;144.67;;;8.53;;
5630;SDS011;2837;50.990;7.124;2022-09-03T10:22:55;144.67;;;7.60;;
5630;SDS011;2837;50.990;7.124;2022-09-03T10:25:21;147.37;;;8.60;;
5630;SDS011;2837;50.990;7.124;2022-09-03T10:27:51;144.17;;;7.70;;
5630;SDS011;2837;50.990;7.124;2022-09-03T10:30:20;144.93;;;8.33;;
5630;SDS011;2837;50.990;7.124;2022-09-03T10:35:41;145.17;;;8.67;;
5630;SDS011;2837;50.990;7.124;2022-09-03T10:46:16;143.87;;;7.57;;
5630;SDS011;2837;50.990;7.124;2022-09-03T10:52:25;145.50;;;8.30;;
5630;SDS011;2837;50.990;7.124;2022-09-03T10:54:27;144.10;;;7.90;;
5630;SDS011;2837;50.990;7.124;2022-09-03T10:57:00;143.53;;;7.33;;
5630;SDS011;2837;50.990;7.124;2022-09-03T10:59:44;143.90;;;8.03;;
5630;SDS011;2837;50.990;7.124;2022-09-03T11:05:38;143.97;;;7.93;;
5630;SDS011;2837;50.990;7.124;2022-09-03T11:10:53;143.40;;;7.70;;
5630;SDS011;2837;50.990;7.124;2022-09-03T11:13:31;142.97;;;7.27;;
5630;SDS011;2837;50.990;7.124;2022-09-03T11:16:24;146.70;;;7.50;;
5630;SDS011;2837;50.990;7.124;2022-09-03T11:18:56;144.13;;;8.57;;
5630;SDS011;2837;50.990;7.124;2022-09-03T11:21:29;143.37;;;7.30;;
5630;SDS011;2837;50.990;7.124;2022-09-03T11:24:04;144.90;;;8.07;;
5630;SDS011;2837;50.990;7.124;2022-09-03T11:26:42;142.90;;;7.20;;
5630;SDS011;2837;50.990;7.124;2022-09-03T11:32:40;143.13;;;7.10;;
5630;SDS011;2837;50.990;7.124;2022-09-03T11:35:24;143.90;;;7.83;;
5630;SDS011;2837;50.990;7.124;2022-09-03T11:40:32;144.40;;;8.33;;
5630;SDS011;2837;50.990;7.124;2022-09-03T11:43:09;143.37;;;7.77;;
5630;SDS011;2837;50.990;7.124;2022-09-03T11:46:00;143.33;;;7.57;;
5630;SDS011;2837;50.990;7.124;2022-09-03T11:48:32;144.10;;;8.07;;
5630;SDS011;2837;50.990;7.124;2022-09-03T11:51:01;144.27;;;8.20;;
5630;SDS011;2837;50.990;7.124;2022-09-03T11:53:34;145.13;;;8.43;;
5630;SDS011;2837;50.990;7.124;2022-09-03T11:56:11;145.10;;;6.90;;
5630;SDS011;2837;50.990;7.124;2022-09-03T11:58:43;143.77;;;7.57;;
5630;SDS011;2837;50.990;7.124;2022-09-03T12:01:13;144.03;;;8.20;;
5630;SDS011;2837;50.990;7.124;2022-09-03T12:17:55;148.63;;;8.17;;
5630;SDS011;2837;50.990;7.124;2022-09-03T12:23:30;143.97;;;7.70;;
5630;SDS011;2837;50.990;7.124;2022-09-03T12:25:59;143.90;;;7.50;;
5630;SDS011;2837;50.990;7.124;2022-09-03T12:28:38;143.20;;;7.50;;
5630;SDS011;2837;50.990;7.124;2022-09-03T12:31:06;144.30;;;8.10;;
5630;SDS011;2837;50.990;7.124;2022-09-03T12:33:45;143.67;;;7.80;;
5630;SDS011;2837;50.990;7.124;2022-09-03T12:36:12;143.80;;;7.83;;
5630;SDS011;2837;50.990;7.124;2022-09-03T12:38:39;144.00;;;8.50;;
5630;SDS011;2837;50.990;7.124;2022-09-03T12:41:05;143.87;;;8.63;;
5630;SDS011;2837;50.990;7.124;2022-09-03T12:44:02;142.77;;;7.10;;
5630;SDS011;2837;50.990;7.124;2022-09-03T12:46:29;145.00;;;8.13;;
5630;SDS011;2837;50.990;7.124;2022-09-03T12:48:58;143.73;;;8.00;;
5630;SDS011;2837;50.990;7.124;2022-09-03T12:51:37;144.70;;;7.87;;
5630;SDS011;2837;50.990;7.124;2022-09-03T12:54:07;143.23;;;7.70;;
5630;SDS011;2837;50.990;7.124;2022-09-03T12:56:39;144.07;;;7.90;;
5630;SDS011;2837;50.990;7.124;2022-09-03T12:59:11;145.67;;;8.47;;
5630;SDS011;2837;50.990;7.124;2022-09-03T13:01:46;145.30;;;8.07;;
5630;SDS011;2837;50.990;7.124;2022-09-03T13:04:19;143.23;;;7.80;;
5630;SDS011;2837;50.990;7.124;2022-09-03T13:07:00;144.53;;;8.43;;
5630;SDS011;2837;50.990;7.124;2022-09-03T13:09:37;143.20;;;7.97;;
5630;SDS011;2837;50.990;7.124;2022-09-03T13:12:05;143.97;;;8.00;;
5630;SDS011;2837;50.990;7.124;2022-09-03T13:14:41;143.40;;;7.60;;
5630;SDS011;2837;50.990;7.124;2022-09-03T13:19:36;143.20;;;7.77;;
5630;SDS011;2837;50.990;7.124;2022-09-03T13:27:58;144.07;;;7.50;;
5630;SDS011;2837;50.990;7.124;2022-09-03T13:30:31;143.23;;;7.60;;
5630;SDS011;2837;50.990;7.124;2022-09-03T13:33:24;143.50;;;7.30;;
5630;SDS011;2837;50.990;7.124;2022-09-03T13:36:01;142.63;;;6.90;;
5630;SDS011;2837;50.990;7.124;2022-09-03T13:41:33;143.60;;;8.50;;
5630;SDS011;2837;50.990;7.124;2022-09-03T13:52:50;144.17;;;7.37;;
5630;SDS011;2837;50.990;7.124;2022-09-03T13:55:34;143.67;;;8.17;;
5630;SDS011;2837;50.990;7.124;2022-09-03T13:58:23;142.83;;;7.93;;
5630;SDS011;2837;50.990;7.124;2022-09-03T14:04:02;143.33;;;7.80;;
5630;SDS011;2837;50.990;7.124;2022-09-03T14:07:05;143.80;;;8.23;;
5630;SDS011;2837;50.990;7.124;2022-09-03T14:10:03;142.77;;;7.60;;
5630;SDS011;2837;50.990;7.124;2022-09-03T14:15:14;144.67;;;8.00;;
5630;SDS011;2837;50.990;7.124;2022-09-03T14:20:48;142.33;;;6.83;;
5630;SDS011;2837;50.990;7.124;2022-09-03T14:26:35;143.33;;;7.73;;
5630;SDS011;2837;50.990;7.124;2022-09-03T14:29:03;143.50;;;7.20;;
5630;SDS011;2837;50.990;7.124;2022-09-03T14:34:31;142.57;;;6.90;;
5630;SDS011;2837;50.990;7.124;2022-09-03T14:40:14;142.87;;;8.07;;
5630;SDS011;2837;50.990;7.124;2022-09-03T14:45:14;143.87;;;7.93;;
5630;SDS011;2837;50.990;7.124;2022-09-03T14:56:33;143.90;;;7.43;;
5630;SDS011;2837;50.990;7.124;2022-09-03T14:59:12;143.17;;;7.33;;
5630;SDS011;2837;50.990;7.124;2022-09-03T15:07:58;142.97;;;7.57;;
5630;SDS011;2837;50.990;7.124;2022-09-03T15:10:44;142.67;;;7.63;;
5630;SDS011;2837;50.990;7.124;2022-09-03T15:15:52;143.37;;;8.63;;
5630;SDS011;2837;50.990;7.124;2022-09-03T15:32:09;142.03;;;6.90;;
5630;SDS011;2837;50.990;7.124;2022-09-03T15:35:15;142.20;;;7.80;;
5630;SDS011;2837;50.990;7.124;2022-09-03T15:37:36;142.67;;;7.90;;
5630;SDS011;2837;50.990;7.124;2022-09-03T15:40:18;142.33;;;7.40;;
5630;SDS011;2837;50.990;7.124;2022-09-03T15:42:52;143.43;;;7.77;;
5630;SDS011;2837;50.990;7.124;2022-09-03T15:45:31;143.40;;;7.43;;
5630;SDS011;2837;50.990;7.124;2022-09-03T15:48:11;143.57;;;7.53;;
5630;SDS011;2837;50.990;7.124;2022-09-03T15:50:49;145.47;;;7.57;;
5630;SDS011;2837;50.990;7.124;2022-09-03T15:53:28;142.57;;;7.33;;
5630;SDS011;2837;50.990;7.124;2022-09-03T15:56:11;142.00;;;7.03;;
5630;SDS011;2837;50.990;7.124;2022-09-03T15:58:54;143.17;;;6.80;;
5630;SDS011;2837;50.990;7.124;2022-09-03T16:01:31;142.17;;;7.33;;
5630;SDS011;2837;50.990;7.124;2022-09-03T16:04:03;142.47;;;6.90;;
5630;SDS011;2837;50.990;7.124;2022-09-03T16:06:43;143.77;;;8.20;;
5630;SDS011;2837;50.990;7.124;2022-09-03T16:14:50;143.00;;;8.17;;
5630;SDS011;2837;50.990;7.124;2022-09-03T16:20:20;142.47;;;7.40;;
5630;SDS011;2837;50.990;7.124;2022-09-03T16:22:50;142.60;;;7.37;;
5630;SDS011;2837;50.990;7.124;2022-09-03T16:25:26;143.00;;;7.37;;
5630;SDS011;2837;50.990;7.124;2022-09-03T16:28:09;143.20;;;8.53;;
5630;SDS011;2837;50.990;7.124;2022-09-03T16:39:37;141.70;;;6.50;;
5630;SDS011;2837;50.990;7.124;2022-09-03T17:00:04;143.00;;;7.30;;
5630;SDS011;2837;50.990;7.124;2022-09-03T17:02:47;144.13;;;7.70;;
5630;SDS011;2837;50.990;7.124;2022-09-03T17:17:18;144.53;;;8.23;;
5630;SDS011;2837;50.990;7.124;2022-09-03T17:20:33;144.23;;;8.17;;
5630;SDS011;2837;50.990;7.124;2022-09-03T17:34:29;147.17;;;8.07;;
5630;SDS011;2837;50.990;7.124;2022-09-03T17:53:43;148.47;;;8.30;;
5630;SDS011;2837;50.990;7.124;2022-09-03T17:56:19;145.20;;;7.40;;
5630;SDS011;2837;50.990;7.124;2022-09-03T17:58:54;145.93;;;8.17;;
5630;SDS011;2837;50.990;7.124;2022-09-03T18:01:44;147.30;;;9.00;;
5630;SDS011;2837;50.990;7.124;2022-09-03T18:04:33;146.47;;;8.53;;
5630;SDS011;2837;50.990;7.124;2022-09-03T18:07:53;146.23;;;8.83;;
5630;SDS011;2837;50.990;7.124;2022-09-03T18:18:23;147.07;;;8.97;;
5630;SDS011;2837;50.990;7.124;2022-09-03T18:20:59;146.97;;;8.70;;
5630;SDS011;2837;50.990;7.124;2022-09-03T18:26:56;146.87;;;8.40;;
5630;SDS011;2837;50.990;7.124;2022-09-03T18:29:53;145.97;;;7.73;;
5630;SDS011;2837;50.990;7.124;2022-09-03T18:32:49;146.17;;;8.57;;
5630;SDS011;2837;50.990;7.124;2022-09-03T18:35:34;146.20;;;8.23;;
5630;SDS011;2837;50.990;7.124;2022-09-03T18:38:25;147.57;;;9.33;;
5630;SDS011;2837;50.990;7.124;2022-09-03T18:44:34;147.27;;;9.00;;
5630;SDS011;2837;50.990;7.124;2022-09-03T18:50:49;146.00;;;7.93;;
5630;SDS011;2837;50.990;7.124;2022-09-03T18:53:37;147.27;;;8.77;;
5630;SDS011;2837;50.990;7.124;2022-09-03T19:05:33;147.60;;;9.07;;
5630;SDS011;2837;50.990;7.124;2022-09-03T19:08:27;147.47;;;8.97;;
5630;SDS011;2837;50.990;7.124;2022-09-03T19:14:46;147.77;;;9.00;;
5630;SDS011;2837;50.990;7.124;2022-09-03T19:20:56;148.57;;;9.10;;
5630;SDS011;2837;50.990;7.124;2022-09-03T19:23:47;147.90;;;8.63;;
5630;SDS011;2837;50.990;7.124;2022-09-03T19:35:44;147.73;;;8.10;;
5630;SDS011;2837;50.990;7.124;2022-09-03T19:38:53;147.27;;;7.80;;
5630;SDS011;2837;50.990;7.124;2022-09-03T19:41:47;147.17;;;7.90;;
5630;SDS011;2837;50.990;7.124;2022-09-03T19:48:10;148.07;;;7.90;;
5630;SDS011;2837;50.990;7.124;2022-09-03T19:51:03;148.57;;;9.10;;
5630;SDS011;2837;50.990;7.124;2022-09-03T19:53:57;150.90;;;9.03;;
5630;SDS011;2837;50.990;7.124;2022-09-03T19:56:44;148.27;;;8.50;;
5630;SDS011;2837;50.990;7.124;2022-09-03T19:59:32;147.57;;;8.90;;
5630;SDS011;2837;50.990;7.124;2022-09-03T20:02:20;148.67;;;8.77;;
5630;SDS011;2837;50.990;7.124;2022-09-03T20:05:07;149.03;;;8.93;;
5630;SDS011;2837;50.990;7.124;2022-09-03T20:07:56;149.03;;;9.37;;
5630;SDS011;2837;50.990;7.124;2022-09-03T20:10:42;148.97;;;9.83;;
5630;SDS011;2837;50.990;7.124;2022-09-03T20:13:13;148.53;;;8.70;;
5630;SDS011;2837;50.990;7.124;2022-09-03T20:35:00;150.27;;;9.60;;
5630;SDS011;2837;50.990;7.124;2022-09-03T20:37:43;150.23;;;9.97;;
5630;SDS011;2837;50.990;7.124;2022-09-03T20:40:25;148.97;;;9.77;;
5630;SDS011;2837;50.990;7.124;2022-09-03T20:48:56;148.97;;;9.20;;
5630;SDS011;2837;50.990;7.124;2022-09-03T20:51:33;148.77;;;9.40;;
5630;SDS011;2837;50.990;7.124;2022-09-03T20:59:17;149.47;;;9.17;;
